Dallas, Texas
Traffic Map
Current Weather Conditions
Dallas, Texas
Scattered Clouds
Scattered Clouds
35°
Feels Like: 37°
Wind Chill: 35° Ceiling: Unl
Heat Index: 37° Visibility: 10mi
Dew Point: 19° Wind: 12mph
Humidity: 40% Direction: 130° (SE)
Pressure: 29.91in Gusts: 0mph
Raw Report DataKDAL 022053Z 13010KT 10SM SCT060 SCT075 SCT250 35/19 A2991 RMK AO2 SLP120 MDT CU ALQDS T03500194 56031
Traffic Incident Summary
Active as of:
Severity:
Category:
InformationThere was an issue retrieving the traffic information for this location. Please try a different location or try again shortly.
Advertisements
Track Severe Weather on mobile